Terminal Aerodrome Forecast
Issued by NWS

Home | Current Version | Previous Version | Text Only | Print | Product List | Glossary On
Versions: 1 2 3 4 5 6 7 8 9 10 11 12 13
000
FTUS42 KMHX 201700 CCA
TAFOAJ
TAF COR
KOAJ 201757Z 2018/2118 03005KT P6SM -RA SCT015 OVC060
      TEMPO 2018/2021 BKN025
     FM210000 02004KT P6SM BKN040
      AMD LTD TO CLD VIS AND WIND=

USA.gov is the U.S. government's official web portal to all federal, state and local government web resources and services.